Time;durP1;ratioP1;P1;durP2;ratioP2;P2;SDS_P1;SDS_P2;PMS_P1;PMS_P2;Temp;Humidity;BMP_temperature;BMP_pressure;BME280_temperature;BME280_humidity;BME280_pressure;Samples;Min_cycle;Max_cycle;Signal;HPM_P1;HPM_P2
2022/03/01 00:01:58;;;;;;;32.53;19.42;;;4.20;99.90;;;;;;5031317;28;20071;-77
2022/03/01 00:04:23;;;;;;;37.40;19.30;;;4.30;99.90;;;;;;5042419;28;20029;-77
2022/03/01 00:06:49;;;;;;;35.80;19.90;;;4.30;99.90;;;;;;5025140;28;20430;-77
2022/03/01 00:09:15;;;;;;;33.22;18.33;;;4.20;99.90;;;;;;5037646;28;20390;-77
2022/03/01 00:11:41;;;;;;;32.58;19.73;;;4.10;99.90;;;;;;5030615;28;20082;-76
2022/03/01 00:14:07;;;;;;;30.98;19.73;;;4.00;99.90;;;;;;5035656;28;20025;-77
2022/03/01 00:16:33;;;;;;;34.55;19.40;;;4.00;99.90;;;;;;5031925;28;20059;-76
2022/03/01 00:18:59;;;;;;;32.20;19.05;;;3.90;99.90;;;;;;5028950;28;20474;-76
2022/03/01 00:21:26;;;;;;;33.17;19.15;;;3.90;99.90;;;;;;5028486;28;20026;-76
2022/03/01 00:23:51;;;;;;;31.88;19.05;;;3.90;99.90;;;;;;5045377;28;20078;-76
2022/03/01 00:26:17;;;;;;;36.08;19.95;;;3.90;99.90;;;;;;5027642;28;20034;-76
2022/03/01 00:28:44;;;;;;;33.05;18.83;;;3.90;99.90;;;;;;5026803;28;20037;-77
2022/03/01 00:31:10;;;;;;;34.20;20.30;;;3.90;99.90;;;;;;5036857;28;20037;-77
2022/03/01 00:33:35;;;;;;;33.28;20.23;;;3.80;99.90;;;;;;5028124;28;20145;-76
2022/03/01 00:36:02;;;;;;;33.95;19.73;;;3.80;99.90;;;;;;5036755;28;20112;-76
2022/03/01 00:38:27;;;;;;;30.88;19.63;;;3.80;99.90;;;;;;5040481;28;20094;-76
2022/03/01 00:40:53;;;;;;;30.08;17.92;;;3.60;99.90;;;;;;5034024;28;20037;-76
2022/03/01 00:43:21;;;;;;;39.53;18.17;;;3.60;99.90;;;;;;5043376;28;20024;-75
2022/03/01 00:45:47;;;;;;;34.13;16.98;;;3.50;99.90;;;;;;5030319;28;20095;-75
2022/03/01 00:48:12;;;;;;;33.17;18.30;;;3.40;99.90;;;;;;5036285;28;20032;-76
2022/03/01 00:50:38;;;;;;;34.72;18.48;;;3.50;99.90;;;;;;5038047;28;20048;-77
2022/03/01 00:53:05;;;;;;;28.85;16.77;;;3.60;99.90;;;;;;5028283;28;20383;-77
2022/03/01 00:55:30;;;;;;;30.13;17.88;;;3.60;99.90;;;;;;5032204;28;20022;-77
2022/03/01 00:57:56;;;;;;;33.58;18.90;;;3.60;99.90;;;;;;5036225;28;20024;-76
2022/03/01 01:00:22;;;;;;;31.90;16.98;;;3.60;99.90;;;;;;5036269;28;20022;-76
2022/03/01 01:02:48;;;;;;;31.52;17.27;;;3.60;99.90;;;;;;5037200;28;20673;-76
2022/03/01 01:05:14;;;;;;;35.58;18.58;;;3.60;99.90;;;;;;5026895;28;20034;-76
2022/03/01 01:07:40;;;;;;;34.15;19.30;;;3.70;99.90;;;;;;5037522;28;20021;-76
2022/03/01 01:10:06;;;;;;;32.08;19.83;;;3.70;99.90;;;;;;5033429;28;20091;-77
2022/03/01 01:12:33;;;;;;;35.50;19.00;;;3.60;99.90;;;;;;5037447;28;20061;-77
2022/03/01 01:14:59;;;;;;;31.30;18.55;;;3.60;99.90;;;;;;5034555;28;20021;-76
2022/03/01 01:17:25;;;;;;;32.70;18.85;;;3.60;99.90;;;;;;5036919;28;20033;-76
2022/03/01 01:19:50;;;;;;;33.70;18.92;;;3.60;99.90;;;;;;5036500;28;20022;-77
2022/03/01 01:25:01;;;;;;;32.35;17.88;;;3.60;99.90;;;;;;5036427;28;20081;-76
2022/03/01 01:27:27;;;;;;;30.95;18.55;;;3.60;99.90;;;;;;5029533;28;20549;-76
2022/03/01 01:29:53;;;;;;;29.63;18.10;;;3.60;99.90;;;;;;5034877;28;20097;-76
2022/03/01 01:32:18;;;;;;;29.52;17.40;;;3.50;99.90;;;;;;5033188;28;20734;-77
2022/03/01 01:34:44;;;;;;;29.77;16.60;;;3.60;99.90;;;;;;5045794;28;20025;-77
2022/03/01 01:37:10;;;;;;;27.40;16.52;;;3.50;99.90;;;;;;5027184;28;20034;-77
2022/03/01 01:39:35;;;;;;;31.17;17.48;;;3.60;99.90;;;;;;5039357;28;20033;-76
2022/03/01 01:42:01;;;;;;;31.52;17.33;;;3.60;99.90;;;;;;5041237;28;20017;-76
2022/03/01 01:44:30;;;;;;;28.30;16.85;;;3.50;99.90;;;;;;5036512;28;20025;-77
2022/03/01 01:46:56;;;;;;;31.13;18.90;;;3.40;99.90;;;;;;5039225;28;20373;-76
2022/03/01 01:49:21;;;;;;;29.58;17.00;;;3.40;99.90;;;;;;5042336;28;20029;-77
2022/03/01 01:51:47;;;;;;;30.35;17.60;;;3.40;99.90;;;;;;5034053;28;20033;-77
2022/03/01 01:54:13;;;;;;;29.35;16.90;;;3.40;99.90;;;;;;5034386;28;20026;-77
2022/03/01 01:56:39;;;;;;;32.53;17.38;;;3.40;99.90;;;;;;5051428;28;20028;-77
2022/03/01 01:59:05;;;;;;;26.75;16.05;;;3.40;99.90;;;;;;5044740;28;20017;-77
2022/03/01 02:01:31;;;;;;;28.98;18.33;;;3.30;99.90;;;;;;5043828;28;20029;-77
2022/03/01 02:03:56;;;;;;;26.88;17.40;;;3.30;99.90;;;;;;5038933;28;20022;-77
2022/03/01 02:06:22;;;;;;;29.90;17.58;;;3.30;99.90;;;;;;5053494;28;20110;-77
2022/03/01 02:08:48;;;;;;;29.15;17.00;;;3.20;99.90;;;;;;5040483;28;20048;-77
2022/03/01 02:11:13;;;;;;;30.33;17.92;;;3.20;99.90;;;;;;5037242;28;20041;-77
2022/03/01 02:13:39;;;;;;;31.38;16.85;;;3.20;99.90;;;;;;5035450;28;20071;-77
2022/03/01 02:16:05;;;;;;;36.47;18.33;;;3.20;99.90;;;;;;5043978;28;20026;-77
2022/03/01 02:18:30;;;;;;;31.88;17.88;;;3.20;99.90;;;;;;5040686;28;20037;-77
2022/03/01 02:20:56;;;;;;;31.38;17.02;;;3.20;99.90;;;;;;5035063;28;20033;-77
2022/03/01 02:23:22;;;;;;;33.47;17.80;;;3.20;99.90;;;;;;5044133;28;20070;-78
2022/03/01 02:25:47;;;;;;;30.33;17.52;;;3.30;99.90;;;;;;5040601;28;20451;-77
2022/03/01 02:28:13;;;;;;;32.47;17.70;;;3.20;99.90;;;;;;5046292;28;20033;-78
2022/03/01 02:30:39;;;;;;;32.65;18.48;;;3.20;99.90;;;;;;5043360;28;20037;-77
2022/03/01 02:33:05;;;;;;;27.95;16.45;;;3.10;99.90;;;;;;5042811;28;20055;-77
2022/03/01 02:35:30;;;;;;;29.25;17.25;;;3.20;99.90;;;;;;5043063;28;20036;-76
2022/03/01 02:37:56;;;;;;;32.67;17.95;;;3.20;99.90;;;;;;5049000;28;20397;-77
2022/03/01 02:40:22;;;;;;;31.08;17.08;;;3.20;99.90;;;;;;5047477;28;20435;-77
2022/03/01 02:42:48;;;;;;;29.67;17.33;;;3.20;99.90;;;;;;5042701;28;20474;-77
2022/03/01 02:45:16;;;;;;;32.25;17.98;;;3.20;99.90;;;;;;5041757;28;20426;-77
2022/03/01 02:47:42;;;;;;;33.50;18.08;;;3.20;99.90;;;;;;5042699;28;20180;-77
2022/03/01 02:50:10;;;;;;;33.90;18.45;;;3.20;99.90;;;;;;5048785;28;20035;-77
2022/03/01 02:52:36;;;;;;;32.25;19.23;;;3.20;99.90;;;;;;5041878;28;20068;-77
2022/03/01 02:55:02;;;;;;;27.80;17.25;;;3.10;99.90;;;;;;5042783;28;20107;-77
2022/03/01 02:57:28;;;;;;;30.55;17.83;;;3.10;99.90;;;;;;5043732;28;20028;-77
2022/03/01 02:59:54;;;;;;;31.30;18.25;;;3.10;99.90;;;;;;5037409;28;20374;-77
2022/03/01 03:02:20;;;;;;;30.35;17.75;;;3.10;99.90;;;;;;5036646;28;20029;-77
2022/03/01 03:04:46;;;;;;;32.85;17.00;;;3.00;99.90;;;;;;5040034;28;20103;-77
2022/03/01 03:07:12;;;;;;;26.45;15.45;;;2.90;99.90;;;;;;5042773;28;20533;-76
2022/03/01 03:09:38;;;;;;;31.20;16.80;;;2.90;99.90;;;;;;5035017;28;20027;-76
2022/03/01 03:12:05;;;;;;;31.25;18.25;;;2.90;99.90;;;;;;5040062;28;20026;-77
2022/03/01 03:14:32;;;;;;;29.77;17.65;;;3.00;99.90;;;;;;5038242;28;20039;-78
2022/03/01 03:16:58;;;;;;;28.67;16.58;;;3.00;99.90;;;;;;5036899;28;20029;-77
2022/03/01 03:19:24;;;;;;;28.60;17.17;;;3.10;99.90;;;;;;5039311;28;20458;-77
2022/03/01 03:21:50;;;;;;;34.60;18.63;;;3.00;99.90;;;;;;5040729;28;20510;-77
2022/03/01 03:24:16;;;;;;;30.08;17.63;;;3.00;99.90;;;;;;5049968;28;20056;-74
2022/03/01 03:26:42;;;;;;;34.25;18.50;;;3.10;99.90;;;;;;5037403;28;20045;-77
2022/03/01 03:29:09;;;;;;;27.20;17.17;;;3.10;99.90;;;;;;5036165;28;20084;-76
2022/03/01 03:31:36;;;;;;;28.17;16.88;;;3.20;99.90;;;;;;5029892;28;20039;-76
2022/03/01 03:34:03;;;;;;;29.45;16.85;;;3.20;99.90;;;;;;5040315;28;20131;-77
2022/03/01 03:36:29;;;;;;;30.90;18.33;;;3.20;99.90;;;;;;5026777;28;20025;-76
2022/03/01 03:38:55;;;;;;;29.17;17.27;;;3.20;99.90;;;;;;5034462;28;20017;-77
2022/03/01 03:41:21;;;;;;;30.65;17.63;;;3.10;99.90;;;;;;5027868;28;20026;-76
2022/03/01 03:43:47;;;;;;;28.58;16.92;;;3.10;99.90;;;;;;5030624;28;20029;-77
2022/03/01 03:46:12;;;;;;;29.65;17.52;;;3.10;99.90;;;;;;5044436;28;20033;-75
2022/03/01 03:48:38;;;;;;;32.50;18.38;;;3.10;99.90;;;;;;5041028;28;20104;-77
2022/03/01 03:51:04;;;;;;;31.98;17.27;;;3.10;99.90;;;;;;5026217;28;20412;-77
2022/03/01 03:53:29;;;;;;;31.75;17.33;;;3.20;99.90;;;;;;5035931;28;20013;-77
2022/03/01 03:55:55;;;;;;;32.55;18.85;;;3.20;99.90;;;;;;5048108;28;20055;-77
2022/03/01 03:58:21;;;;;;;31.67;18.17;;;3.20;99.90;;;;;;5040421;28;20397;-77
2022/03/01 04:00:47;;;;;;;30.30;18.67;;;3.20;99.90;;;;;;5026444;28;20029;-77
2022/03/01 04:03:12;;;;;;;29.05;16.90;;;3.20;99.90;;;;;;5034462;28;20035;-77
2022/03/01 04:05:38;;;;;;;36.25;18.83;;;3.20;99.90;;;;;;5041642;28;20049;-77
2022/03/01 04:08:04;;;;;;;29.02;18.70;;;3.20;99.90;;;;;;5040219;28;20030;-77
2022/03/01 04:10:30;;;;;;;36.28;17.92;;;3.30;99.90;;;;;;5027203;28;20033;-77
2022/03/01 04:12:55;;;;;;;33.25;18.35;;;3.30;99.90;;;;;;5034607;28;20028;-77
2022/03/01 04:15:21;;;;;;;28.42;16.02;;;3.30;99.90;;;;;;5031746;28;20516;-77
2022/03/01 04:17:47;;;;;;;32.88;18.67;;;3.30;99.90;;;;;;5032941;28;20029;-76
2022/03/01 04:20:14;;;;;;;30.67;17.63;;;3.30;99.90;;;;;;5035699;28;20029;-77
2022/03/01 04:22:40;;;;;;;27.23;16.80;;;3.30;99.90;;;;;;5028872;28;20025;-77
2022/03/01 04:25:08;;;;;;;29.95;17.77;;;3.30;99.90;;;;;;5040398;28;20631;-76
2022/03/01 04:27:33;;;;;;;30.38;17.27;;;3.20;99.90;;;;;;5027256;28;20084;-77
2022/03/01 04:29:59;;;;;;;29.92;16.98;;;3.20;99.90;;;;;;5038804;28;20424;-77
2022/03/01 04:32:25;;;;;;;32.72;18.38;;;3.20;99.90;;;;;;5027851;28;20426;-77
2022/03/01 04:34:50;;;;;;;32.15;17.17;;;3.10;99.90;;;;;;5024907;28;20208;-77
2022/03/01 04:37:16;;;;;;;30.58;18.15;;;3.10;99.90;;;;;;5033733;28;20033;-77
2022/03/01 04:39:42;;;;;;;32.80;17.10;;;3.10;99.90;;;;;;5032728;28;20025;-77
2022/03/01 04:42:08;;;;;;;32.40;18.88;;;3.20;99.90;;;;;;5033380;28;20108;-77
2022/03/01 04:44:35;;;;;;;30.60;18.17;;;3.10;99.90;;;;;;5035370;28;20029;-77
2022/03/01 04:47:01;;;;;;;29.58;16.85;;;3.10;99.90;;;;;;5044104;28;20070;-75
2022/03/01 04:49:28;;;;;;;28.25;15.27;;;3.10;99.90;;;;;;5035733;28;20036;-77
2022/03/01 04:51:54;;;;;;;28.88;17.27;;;3.20;99.90;;;;;;5036111;28;20041;-76
2022/03/01 04:54:20;;;;;;;28.02;17.52;;;3.10;99.90;;;;;;5024988;28;20112;-77
2022/03/01 04:56:46;;;;;;;29.92;18.38;;;3.20;99.90;;;;;;5038950;28;20060;-77
2022/03/01 04:59:11;;;;;;;33.25;18.30;;;3.20;99.90;;;;;;5023437;28;20033;-77
2022/03/01 05:01:37;;;;;;;28.77;17.00;;;3.20;99.90;;;;;;5032448;28;20101;-77
2022/03/01 05:04:03;;;;;;;30.27;16.23;;;3.20;99.90;;;;;;5032507;28;20044;-77
2022/03/01 05:06:30;;;;;;;26.45;15.18;;;3.20;99.90;;;;;;5028323;28;20010;-77
2022/03/01 05:08:55;;;;;;;30.85;16.80;;;3.30;99.90;;;;;;5037675;28;20024;-75
2022/03/01 05:11:21;;;;;;;34.15;17.15;;;3.30;99.90;;;;;;5033430;28;20084;-77
2022/03/01 05:13:47;;;;;;;29.83;16.75;;;3.40;99.90;;;;;;5032830;28;20018;-74
2022/03/01 05:16:13;;;;;;;27.80;16.67;;;3.40;99.90;;;;;;5038558;28;20036;-77
2022/03/01 05:18:39;;;;;;;27.48;16.85;;;3.40;99.90;;;;;;5041125;28;20026;-77
2022/03/01 05:21:05;;;;;;;28.90;16.88;;;3.40;99.90;;;;;;5034498;28;20393;-77
2022/03/01 05:23:32;;;;;;;31.15;17.67;;;3.40;99.90;;;;;;5041364;28;20143;-77
2022/03/01 05:25:59;;;;;;;30.73;17.10;;;3.40;99.90;;;;;;5029113;28;20044;-77
2022/03/01 05:28:25;;;;;;;31.95;16.85;;;3.50;99.90;;;;;;5038526;28;20025;-77
2022/03/01 05:30:51;;;;;;;28.35;17.17;;;3.50;99.90;;;;;;5039144;28;20429;-77
2022/03/01 05:33:17;;;;;;;27.33;15.57;;;3.50;99.90;;;;;;5046637;28;20033;-77
2022/03/01 05:35:44;;;;;;;30.52;17.27;;;3.40;99.90;;;;;;5041812;28;20026;-76
2022/03/01 05:38:10;;;;;;;31.90;17.55;;;3.40;99.90;;;;;;5046543;28;20053;-77
2022/03/01 05:40:37;;;;;;;29.67;17.40;;;3.50;99.90;;;;;;5043631;28;20029;-77
2022/03/01 05:43:04;;;;;;;28.70;17.40;;;3.40;99.90;;;;;;5027458;28;20029;-77
2022/03/01 05:45:30;;;;;;;28.38;16.60;;;3.50;99.90;;;;;;5039726;28;20036;-77
2022/03/01 05:47:56;;;;;;;30.30;16.88;;;3.50;99.90;;;;;;5026927;28;20057;-77
2022/03/01 05:50:23;;;;;;;30.33;16.70;;;3.50;99.90;;;;;;5045125;28;20030;-76
2022/03/01 05:52:49;;;;;;;30.35;17.25;;;3.50;99.90;;;;;;5034003;28;20385;-72
2022/03/01 05:55:16;;;;;;;31.85;17.88;;;3.50;99.90;;;;;;5037336;28;20452;-76
2022/03/01 05:57:41;;;;;;;29.58;18.73;;;3.50;99.90;;;;;;5031233;28;20035;-77
2022/03/01 06:00:12;;;;;;;31.33;18.42;;;3.50;99.90;;;;;;5032605;28;20039;-77
2022/03/01 06:02:38;;;;;;;33.00;17.83;;;3.50;99.90;;;;;;5031745;28;20378;-77
2022/03/01 06:05:04;;;;;;;32.85;17.23;;;3.40;99.90;;;;;;5039380;28;20442;-76
2022/03/01 06:07:30;;;;;;;30.42;17.38;;;3.40;99.90;;;;;;5034943;28;20451;-77
2022/03/01 06:09:55;;;;;;;29.77;16.80;;;3.30;99.90;;;;;;5026842;28;20068;-76
2022/03/01 06:12:21;;;;;;;30.42;16.55;;;3.30;99.90;;;;;;5033648;28;20030;-76
2022/03/01 06:14:46;;;;;;;35.17;17.65;;;3.20;99.90;;;;;;5033325;28;20033;-77
2022/03/01 06:17:12;;;;;;;30.52;17.00;;;3.20;99.90;;;;;;5030227;28;20694;-77
2022/03/01 06:19:38;;;;;;;31.98;17.83;;;3.10;99.90;;;;;;5040227;28;20036;-77
2022/03/01 06:22:05;;;;;;;37.22;18.48;;;3.00;99.90;;;;;;5034943;28;20512;-77
2022/03/01 06:24:31;;;;;;;31.10;17.95;;;2.90;99.90;;;;;;5040406;28;20036;-77
2022/03/01 06:26:58;;;;;;;30.33;17.77;;;2.90;99.90;;;;;;5028689;28;20029;-77
2022/03/01 06:29:24;;;;;;;29.15;17.05;;;3.00;99.90;;;;;;5035691;28;20025;-77
2022/03/01 06:31:50;;;;;;;32.80;18.50;;;3.00;99.90;;;;;;5030823;28;20037;-76
2022/03/01 06:34:16;;;;;;;34.65;18.23;;;3.00;99.90;;;;;;5046985;28;20084;-77
2022/03/01 06:36:41;;;;;;;32.63;19.58;;;3.00;99.90;;;;;;5042147;28;20040;-77
2022/03/01 06:39:07;;;;;;;35.30;19.13;;;2.90;99.90;;;;;;5031862;28;20018;-77
2022/03/01 06:41:33;;;;;;;33.40;18.75;;;3.00;99.90;;;;;;5037114;28;20233;-77
2022/03/01 06:43:58;;;;;;;31.05;18.27;;;3.10;99.90;;;;;;5035860;28;20026;-77
2022/03/01 06:46:25;;;;;;;32.78;17.95;;;3.10;99.90;;;;;;5038047;28;22147;-77
2022/03/01 06:48:50;;;;;;;32.10;18.20;;;3.10;99.90;;;;;;5038649;28;20032;-77
2022/03/01 06:51:16;;;;;;;40.80;18.20;;;3.20;99.90;;;;;;5042434;28;20103;-77
2022/03/01 06:53:42;;;;;;;36.28;19.98;;;3.20;99.90;;;;;;5023861;28;20379;-77
2022/03/01 06:56:07;;;;;;;32.67;18.65;;;3.20;99.90;;;;;;5040335;28;20030;-77
2022/03/01 06:58:33;;;;;;;35.38;20.25;;;3.20;99.90;;;;;;5028072;28;20024;-77
2022/03/01 07:01:02;;;;;;;29.45;17.15;;;3.20;99.90;;;;;;5039728;28;20025;-77
2022/03/01 07:03:28;;;;;;;33.38;19.20;;;3.20;99.90;;;;;;5027259;28;20041;-77
2022/03/01 07:05:54;;;;;;;30.35;18.83;;;3.20;99.90;;;;;;5036473;28;20524;-77
2022/03/01 07:08:20;;;;;;;33.78;18.08;;;3.30;99.90;;;;;;5032923;28;20133;-77
2022/03/01 07:10:47;;;;;;;29.30;16.75;;;3.40;99.90;;;;;;5034578;28;20033;-77
2022/03/01 07:13:13;;;;;;;31.45;18.05;;;3.40;99.90;;;;;;5039896;28;20020;-76
2022/03/01 07:15:38;;;;;;;30.80;17.08;;;3.50;99.90;;;;;;5025114;28;20528;-76
2022/03/01 07:18:04;;;;;;;34.65;19.25;;;3.50;99.90;;;;;;5034083;28;20028;-77
2022/03/01 07:20:30;;;;;;;33.45;17.27;;;3.60;99.90;;;;;;5036877;28;20026;-78
2022/03/01 07:22:56;;;;;;;29.40;16.50;;;3.60;99.90;;;;;;5037033;28;20641;-77
2022/03/01 07:25:22;;;;;;;30.20;18.50;;;3.70;99.90;;;;;;5030092;28;20055;-78
2022/03/01 07:27:49;;;;;;;36.17;18.70;;;3.70;99.90;;;;;;5041642;28;20021;-76
2022/03/01 07:30:16;;;;;;;28.98;19.08;;;3.80;99.90;;;;;;5047651;28;20374;-76
2022/03/01 07:32:42;;;;;;;34.53;18.98;;;3.80;99.90;;;;;;5030786;28;20029;-76
2022/03/01 07:35:07;;;;;;;28.98;17.17;;;3.80;99.90;;;;;;5031879;28;20021;-76
2022/03/01 07:37:34;;;;;;;30.08;16.27;;;3.80;99.90;;;;;;5028661;28;20513;-76
2022/03/01 07:40:00;;;;;;;27.42;16.13;;;3.80;99.90;;;;;;5033146;28;20047;-76
2022/03/01 07:42:26;;;;;;;29.73;17.13;;;3.90;99.90;;;;;;5028107;28;20018;-76
2022/03/01 07:44:52;;;;;;;34.63;18.35;;;4.10;99.90;;;;;;5030791;28;20036;-77
2022/03/01 07:47:17;;;;;;;30.52;18.45;;;4.10;99.90;;;;;;5036860;28;20037;-76
2022/03/01 07:49:43;;;;;;;29.30;16.42;;;4.10;99.90;;;;;;5040891;28;20034;-75
2022/03/01 07:52:09;;;;;;;33.05;18.05;;;4.20;99.90;;;;;;5024909;28;20037;-78
2022/03/01 07:54:35;;;;;;;30.48;16.40;;;4.30;99.90;;;;;;5036958;28;20160;-78
2022/03/01 07:57:00;;;;;;;29.42;16.27;;;4.30;99.90;;;;;;5043087;28;20530;-77
2022/03/01 07:59:26;;;;;;;27.70;14.85;;;4.20;99.90;;;;;;5035967;28;20128;-77
2022/03/01 08:01:52;;;;;;;28.63;15.82;;;4.10;99.90;;;;;;5040649;28;20025;-78
2022/03/01 08:04:17;;;;;;;33.47;16.58;;;4.10;99.90;;;;;;5026922;28;20328;-78
2022/03/01 08:06:43;;;;;;;29.13;16.33;;;4.20;99.90;;;;;;5031755;28;20047;-78
2022/03/01 08:09:09;;;;;;;28.05;17.38;;;4.20;99.90;;;;;;5028107;28;20026;-78
2022/03/01 08:11:34;;;;;;;29.77;16.25;;;4.20;99.90;;;;;;5034694;28;20044;-77
2022/03/01 08:14:00;;;;;;;26.52;16.33;;;4.20;99.90;;;;;;5033770;28;20112;-77
2022/03/01 08:16:25;;;;;;;27.48;17.02;;;4.20;99.90;;;;;;5043775;28;20408;-77
2022/03/01 08:18:51;;;;;;;25.38;15.13;;;4.20;99.90;;;;;;5049940;28;20466;-77
2022/03/01 08:21:17;;;;;;;27.52;15.32;;;4.20;99.90;;;;;;5046676;28;20017;-79
2022/03/01 08:23:42;;;;;;;28.63;15.95;;;4.30;99.90;;;;;;5034726;28;20560;-77
2022/03/01 08:26:08;;;;;;;23.55;14.68;;;4.30;99.90;;;;;;5038959;28;20363;-78
2022/03/01 08:28:34;;;;;;;31.25;16.13;;;4.20;99.90;;;;;;5034367;28;20367;-78
2022/03/01 08:31:00;;;;;;;29.30;15.15;;;4.30;99.90;;;;;;5039361;28;20022;-77
2022/03/01 08:33:26;;;;;;;29.67;15.27;;;4.30;99.90;;;;;;5026124;28;20097;-76
2022/03/01 08:35:55;;;;;;;28.52;16.23;;;4.40;99.90;;;;;;5033480;28;20025;-78
2022/03/01 08:38:21;;;;;;;28.08;14.98;;;4.40;99.90;;;;;;5038366;28;20021;-77
2022/03/01 08:40:47;;;;;;;26.85;14.95;;;4.40;99.90;;;;;;5027645;28;20029;-77
2022/03/01 08:43:13;;;;;;;30.75;15.25;;;4.40;99.90;;;;;;5034938;28;20402;-78
2022/03/01 08:45:40;;;;;;;28.05;14.15;;;4.40;99.90;;;;;;5024982;28;20050;-76
2022/03/01 08:48:06;;;;;;;31.17;15.07;;;4.50;99.90;;;;;;5036045;28;20040;-76
2022/03/01 08:50:32;;;;;;;28.77;14.15;;;4.60;99.90;;;;;;5028876;28;20030;-77
2022/03/01 08:52:59;;;;;;;27.65;14.40;;;4.70;99.90;;;;;;5033868;28;20057;-77
2022/03/01 08:55:24;;;;;;;28.73;15.25;;;4.60;99.90;;;;;;5026091;28;20099;-76
2022/03/01 08:57:50;;;;;;;22.20;13.38;;;4.70;99.90;;;;;;5038065;28;20024;-76
2022/03/01 09:00:17;;;;;;;25.50;14.20;;;4.80;99.90;;;;;;5035346;28;20057;-79
2022/03/01 09:02:43;;;;;;;27.02;15.10;;;4.80;99.90;;;;;;5029522;28;20084;-74
2022/03/01 09:05:08;;;;;;;31.70;15.75;;;4.90;99.90;;;;;;5033758;28;20025;-75
2022/03/01 09:07:35;;;;;;;27.17;14.35;;;5.00;99.90;;;;;;5044332;28;20038;-75
2022/03/01 09:10:02;;;;;;;26.45;15.55;;;5.00;99.90;;;;;;5043552;28;20024;-76
2022/03/01 09:12:28;;;;;;;29.63;15.75;;;5.00;99.90;;;;;;5045515;28;20291;-74
2022/03/01 09:14:54;;;;;;;27.52;13.95;;;5.10;99.90;;;;;;5038060;28;20037;-75
2022/03/01 09:17:20;;;;;;;24.75;14.73;;;5.20;99.90;;;;;;5048941;28;20036;-75
2022/03/01 09:19:45;;;;;;;24.90;13.95;;;5.20;99.90;;;;;;5029273;28;20022;-75
2022/03/01 09:22:11;;;;;;;24.05;14.73;;;5.20;99.90;;;;;;5042108;28;20021;-75
2022/03/01 09:24:36;;;;;;;31.80;14.70;;;5.40;99.90;;;;;;5034055;28;20033;-76
2022/03/01 09:27:02;;;;;;;27.70;14.73;;;5.50;99.90;;;;;;5044414;28;20030;-75
2022/03/01 09:29:30;;;;;;;23.77;14.05;;;5.60;99.90;;;;;;5041354;28;20032;-75
2022/03/01 09:31:56;;;;;;;28.13;14.23;;;5.70;99.90;;;;;;5037597;28;20033;-75
2022/03/01 09:34:22;;;;;;;27.60;15.10;;;5.80;99.90;;;;;;5035383;28;20017;-75
2022/03/01 09:36:48;;;;;;;26.75;14.95;;;6.00;99.90;;;;;;5040759;28;20033;-76
2022/03/01 09:39:14;;;;;;;23.48;14.20;;;6.00;99.90;;;;;;5030993;28;20018;-77
2022/03/01 09:41:39;;;;;;;23.27;14.00;;;6.10;99.90;;;;;;5035372;28;20026;-76
2022/03/01 09:44:06;;;;;;;24.42;14.45;;;6.10;99.90;;;;;;5036277;28;20032;-76
2022/03/01 09:46:32;;;;;;;27.55;13.95;;;6.20;99.90;;;;;;5038925;28;20344;-76
2022/03/01 09:48:57;;;;;;;25.52;14.80;;;6.20;99.90;;;;;;5036373;28;20023;-76
2022/03/01 09:51:24;;;;;;;27.77;15.55;;;6.20;99.90;;;;;;5029061;28;20041;-76
2022/03/01 09:53:51;;;;;;;24.75;14.70;;;6.30;99.90;;;;;;5039040;28;20021;-77
2022/03/01 09:56:18;;;;;;;26.30;16.05;;;6.40;99.90;;;;;;5028366;28;20493;-77
2022/03/01 09:58:49;;;;;;;25.92;15.48;;;6.50;99.90;;;;;;5037978;28;20036;-77
2022/03/01 10:01:16;;;;;;;29.48;15.70;;;6.50;99.90;;;;;;5036612;28;20108;-77
2022/03/01 10:03:48;;;;;;;28.52;16.23;;;6.50;99.90;;;;;;5042694;28;20092;-78
2022/03/01 10:06:15;;;;;;;25.80;14.43;;;6.70;99.90;;;;;;5043982;28;20079;-77
2022/03/01 10:08:41;;;;;;;21.02;14.40;;;6.80;99.90;;;;;;5036026;28;20017;-77
2022/03/01 10:11:07;;;;;;;25.85;16.05;;;6.90;99.90;;;;;;5031568;28;20029;-77
2022/03/01 10:13:37;;;;;;;31.08;16.42;;;6.90;99.90;;;;;;5037075;28;20040;-77
2022/03/01 10:16:09;;;;;;;27.17;16.10;;;6.90;99.90;;;;;;5026532;28;20508;-77
2022/03/01 10:18:37;;;;;;;25.98;14.98;;;7.00;99.90;;;;;;5036837;28;20034;-77
2022/03/01 10:21:12;;;;;;;27.05;14.60;;;7.20;99.90;;;;;;5037880;28;20069;-78
2022/03/01 10:23:44;;;;;;;28.33;16.00;;;7.40;99.90;;;;;;5037211;28;20021;-77
2022/03/01 10:26:18;;;;;;;26.15;16.73;;;7.60;99.90;;;;;;5030273;28;20036;-78
2022/03/01 10:28:45;;;;;;;30.70;16.30;;;7.80;99.90;;;;;;5033026;28;20034;-79
2022/03/01 10:31:14;;;;;;;27.10;16.20;;;7.90;99.90;;;;;;5043344;28;20037;-78
2022/03/01 10:33:51;;;;;;;27.90;16.88;;;8.10;99.90;;;;;;5030497;28;20018;-78
2022/03/01 10:36:21;;;;;;;26.33;16.75;;;8.10;99.90;;;;;;5033639;28;20033;-78
2022/03/01 10:38:57;;;;;;;27.77;16.77;;;8.20;99.90;;;;;;5036090;28;20024;-78
2022/03/01 10:41:25;;;;;;;32.63;16.48;;;8.20;99.90;;;;;;5032830;28;20013;-78
2022/03/01 10:43:53;;;;;;;25.00;15.68;;;8.30;99.90;;;;;;5028723;28;20585;-78
2022/03/01 10:46:19;;;;;;;26.25;15.52;;;8.40;99.90;;;;;;5036000;28;20020;-77
2022/03/01 10:48:45;;;;;;;27.33;15.80;;;8.40;99.90;;;;;;5037908;28;20080;-78
2022/03/01 10:51:11;;;;;;;25.15;15.48;;;8.50;99.90;;;;;;5031006;28;20060;-78
2022/03/01 10:53:42;;;;;;;30.92;17.55;;;8.50;99.90;;;;;;5035243;28;20090;-78
2022/03/01 10:56:09;;;;;;;23.77;15.85;;;8.60;99.90;;;;;;5030612;28;20014;-78
2022/03/01 10:58:36;;;;;;;30.55;15.88;;;8.70;99.90;;;;;;5035403;28;20040;-78
2022/03/01 11:01:04;;;;;;;27.33;16.85;;;8.90;99.90;;;;;;5029976;28;20018;-78
2022/03/01 11:03:32;;;;;;;27.60;16.70;;;9.20;99.90;;;;;;5028610;28;20096;-79
2022/03/01 11:05:58;;;;;;;26.38;15.55;;;9.50;99.90;;;;;;5034430;28;20445;-78
2022/03/01 11:08:31;;;;;;;25.65;15.10;;;9.50;99.90;;;;;;5032463;28;20033;-78
2022/03/01 11:10:59;;;;;;;23.33;15.95;;;9.60;99.90;;;;;;5031228;28;20071;-78
2022/03/01 11:13:27;;;;;;;28.95;17.85;;;9.60;99.90;;;;;;5041747;28;20021;-79
2022/03/01 11:16:09;;;;;;;28.10;17.27;;;9.70;99.90;;;;;;5024845;28;20073;-78
2022/03/01 11:18:37;;;;;;;31.20;16.73;;;9.70;99.90;;;;;;5040136;28;20480;-78
2022/03/01 11:21:05;;;;;;;27.88;16.23;;;9.70;99.90;;;;;;5044617;28;20128;-78
2022/03/01 11:23:31;;;;;;;24.35;15.80;;;9.80;99.90;;;;;;5039490;28;20027;-78
2022/03/01 11:26:08;;;;;;;27.25;17.13;;;9.70;99.90;;;;;;5021841;28;20032;-78
2022/03/01 11:28:40;;;;;;;29.33;16.67;;;9.70;99.90;;;;;;5042231;28;20052;-79
2022/03/01 11:31:25;;;;;;;26.85;16.52;;;9.80;99.90;;;;;;5038793;28;20057;-75
2022/03/01 11:34:15;;;;;;;26.65;16.77;;;9.90;99.90;;;;;;5025920;28;20029;-78
2022/03/01 11:36:53;;;;;;;28.65;16.50;;;9.90;99.90;;;;;;5031862;28;20029;-78
2022/03/01 11:39:25;;;;;;;31.52;16.92;;;10.10;99.90;;;;;;5025121;28;20048;-77
2022/03/01 11:41:53;;;;;;;;;;;10.20;99.90;;;;;;5038380;28;20025;-75
2022/03/01 11:44:24;;;;;;;32.42;16.77;;;10.30;99.90;;;;;;5037290;28;19909;-78
2022/03/01 11:46:50;;;;;;;29.52;17.65;;;10.40;99.90;;;;;;5028623;28;20024;-76
2022/03/01 11:49:19;;;;;;;30.58;18.20;;;10.40;99.90;;;;;;5035801;28;20521;-78
2022/03/01 11:51:49;;;;;;;28.83;17.00;;;10.40;99.90;;;;;;5040422;28;20113;-78
2022/03/01 11:54:20;;;;;;;27.27;18.08;;;10.50;99.90;;;;;;5040491;28;20583;-78
2022/03/01 11:56:49;;;;;;;28.73;15.50;;;10.50;99.90;;;;;;5038776;28;20021;-78
2022/03/01 11:59:16;;;;;;;27.05;14.98;;;10.50;99.90;;;;;;5020728;28;20025;-78
2022/03/01 12:01:42;;;;;;;27.30;15.57;;;10.50;99.90;;;;;;5027194;28;20021;-79
2022/03/01 12:04:10;;;;;;;30.40;17.35;;;10.50;99.90;;;;;;5034697;28;20543;-81
2022/03/01 12:06:40;;;;;;;27.30;15.60;;;10.50;99.90;;;;;;5032935;28;20026;-80
2022/03/01 12:09:11;;;;;;;24.73;14.43;;;10.50;99.90;;;;;;5029822;28;20021;-80
2022/03/01 12:11:43;;;;;;;25.88;13.77;;;10.50;99.90;;;;;;5037858;28;20129;-79
2022/03/01 12:14:19;;;;;;;21.45;13.40;;;10.50;99.90;;;;;;5027123;28;20027;-80
2022/03/01 12:16:46;;;;;;;24.40;15.68;;;10.60;99.90;;;;;;5036678;28;20025;-80
2022/03/01 12:19:18;;;;;;;22.83;14.98;;;10.60;99.90;;;;;;5025425;28;20379;-80
2022/03/01 12:21:53;;;;;;;31.05;17.40;;;10.80;99.90;;;;;;5031624;28;20030;-80
2022/03/01 12:24:22;;;;;;;24.90;14.90;;;10.90;99.90;;;;;;5030253;28;20399;-80
2022/03/01 12:26:53;;;;;;;24.75;14.68;;;10.80;99.90;;;;;;5033585;28;20022;-80
2022/03/01 12:29:21;;;;;;;26.88;16.58;;;10.90;99.90;;;;;;5026785;28;20022;-80
2022/03/01 12:32:03;;;;;;;26.17;16.35;;;10.90;99.90;;;;;;5032472;28;20524;-81
2022/03/01 12:34:30;;;;;;;30.05;17.30;;;10.90;99.90;;;;;;5028902;28;20032;-80
2022/03/01 12:36:58;;;;;;;27.55;16.45;;;11.10;99.90;;;;;;5037753;28;20053;-81